createdAt,value
2018-09-14T00:00:39.424Z,12.65
2018-09-14T00:03:08.318Z,12.70
2018-09-14T00:05:36.983Z,12.72
2018-09-14T00:08:05.665Z,12.56
2018-09-14T00:10:34.357Z,12.35
2018-09-14T00:13:03.053Z,12.22
2018-09-14T00:15:31.780Z,12.11
2018-09-14T00:18:00.433Z,12.02
2018-09-14T00:20:29.103Z,12.13
2018-09-14T00:22:57.764Z,11.87
2018-09-14T00:25:26.449Z,12.08
2018-09-14T00:27:55.152Z,11.93
2018-09-14T00:30:23.863Z,11.86
2018-09-14T00:32:52.622Z,11.90
2018-09-14T00:35:21.303Z,11.77
2018-09-14T00:37:50.671Z,11.68
2018-09-14T00:40:19.530Z,11.66
2018-09-14T00:42:48.252Z,11.61
2018-09-14T00:45:16.903Z,11.59
2018-09-14T00:47:45.640Z,11.51
2018-09-14T00:50:14.344Z,11.41
2018-09-14T00:52:43.251Z,11.47
2018-09-14T00:55:11.960Z,11.32
2018-09-14T00:57:40.644Z,11.25
2018-09-14T01:00:09.340Z,11.18
2018-09-14T01:02:38.006Z,11.29
2018-09-14T01:05:06.788Z,11.20
2018-09-14T01:07:36.105Z,11.23
2018-09-14T01:10:05.899Z,11.27
2018-09-14T01:12:34.687Z,11.17
2018-09-14T01:15:03.387Z,11.20
2018-09-14T01:17:32.082Z,11.13
2018-09-14T01:20:00.794Z,11.09
2018-09-14T01:22:29.441Z,11.04
2018-09-14T01:24:58.123Z,11.09
2018-09-14T01:27:26.819Z,11.10
2018-09-14T01:29:55.534Z,11.00
2018-09-14T01:32:24.225Z,11.01
2018-09-14T01:34:52.907Z,10.95
2018-09-14T01:37:21.577Z,10.85
2018-09-14T01:39:50.323Z,10.88
2018-09-14T01:42:19.012Z,10.97
2018-09-14T01:44:47.724Z,10.88
2018-09-14T01:47:16.395Z,10.79
2018-09-14T01:49:45.365Z,10.79
2018-09-14T01:52:14.048Z,10.83
2018-09-14T01:54:42.779Z,10.73
2018-09-14T01:57:11.424Z,10.72
2018-09-14T01:59:40.156Z,10.83
2018-09-14T02:02:08.842Z,10.87
2018-09-14T02:04:37.521Z,10.93
2018-09-14T02:07:06.184Z,11.03
2018-09-14T02:09:35.040Z,11.07
2018-09-14T02:12:03.700Z,11.08
2018-09-14T02:14:32.339Z,11.07
2018-09-14T02:17:01.055Z,10.98
2018-09-14T02:19:29.743Z,10.97
2018-09-14T02:21:58.399Z,10.87
2018-09-14T02:24:27.843Z,10.84
2018-09-14T02:26:56.591Z,10.83
2018-09-14T02:29:25.353Z,10.86
2018-09-14T02:31:54.133Z,10.95
2018-09-14T02:34:22.816Z,11.15
2018-09-14T02:36:51.529Z,11.14
2018-09-14T02:39:20.177Z,11.07
2018-09-14T02:41:48.843Z,10.88
2018-09-14T02:44:17.563Z,10.97
2018-09-14T02:46:46.240Z,10.94
2018-09-14T02:49:14.965Z,10.99
2018-09-14T02:51:43.651Z,11.10
2018-09-14T02:54:12.341Z,11.11
2018-09-14T02:56:41.108Z,11.14
2018-09-14T02:59:09.830Z,11.20
2018-09-14T03:01:39.351Z,11.15
2018-09-14T03:04:08.124Z,11.23
2018-09-14T03:06:36.883Z,11.18
2018-09-14T03:09:07.643Z,11.24
2018-09-14T03:11:36.739Z,11.32
2018-09-14T03:14:05.806Z,11.33
2018-09-14T03:16:34.840Z,11.42
2018-09-14T03:19:03.661Z,11.41
2018-09-14T03:21:32.306Z,11.37
2018-09-14T03:24:01.031Z,11.25
2018-09-14T03:26:29.723Z,11.18
2018-09-14T03:28:58.372Z,11.17
2018-09-14T03:31:27.049Z,11.33
2018-09-14T03:33:55.708Z,11.37
2018-09-14T03:36:24.360Z,11.43
2018-09-14T03:38:53.056Z,11.46
2018-09-14T03:41:21.842Z,11.56
2018-09-14T03:43:50.512Z,11.57
2018-09-14T03:46:19.208Z,11.69
2018-09-14T03:48:47.871Z,11.62
2018-09-14T03:51:23.139Z,11.62
2018-09-14T03:53:51.818Z,11.55
2018-09-14T03:56:20.661Z,11.30
2018-09-14T03:58:49.450Z,11.03
2018-09-14T04:01:18.123Z,10.88
2018-09-14T04:03:46.833Z,10.82
2018-09-14T04:06:16.256Z,10.81
2018-09-14T04:08:44.926Z,10.85
2018-09-14T04:11:13.611Z,10.72
2018-09-14T04:13:42.319Z,10.67
2018-09-14T04:16:10.968Z,10.54
2018-09-14T04:18:39.640Z,10.45
2018-09-14T04:21:08.326Z,10.38
2018-09-14T04:23:37.171Z,10.31
2018-09-14T04:26:05.736Z,10.28
2018-09-14T04:28:34.408Z,10.27
2018-09-14T04:31:03.283Z,10.26
2018-09-14T04:33:31.963Z,10.19
2018-09-14T04:36:00.629Z,10.19
2018-09-14T04:38:29.390Z,10.22
2018-09-14T04:40:58.866Z,10.14
2018-09-14T04:43:27.608Z,10.11
2018-09-14T04:45:56.292Z,10.05
2018-09-14T04:48:25.077Z,9.89
2018-09-14T04:50:54.031Z,9.91
2018-09-14T04:53:22.778Z,9.75
2018-09-14T04:55:51.432Z,9.69
2018-09-14T04:58:20.158Z,9.66
2018-09-14T05:00:48.816Z,9.69
2018-09-14T05:03:17.660Z,9.66
2018-09-14T05:05:46.327Z,9.63
2018-09-14T05:08:15.042Z,9.60
2018-09-14T05:10:44.627Z,9.39
2018-09-14T05:13:13.400Z,9.37
2018-09-14T05:15:43.204Z,9.42
2018-09-14T05:18:13.032Z,9.46
2018-09-14T05:20:41.716Z,9.48
2018-09-14T05:23:10.457Z,9.46
2018-09-14T05:25:39.132Z,9.51
2018-09-14T05:28:07.813Z,9.52
2018-09-14T05:30:36.687Z,9.52
2018-09-14T05:33:05.443Z,9.61
2018-09-14T05:35:34.131Z,9.69
2018-09-14T05:38:02.827Z,9.75
2018-09-14T05:40:31.508Z,9.86
2018-09-14T05:43:00.216Z,9.91
2018-09-14T05:45:28.897Z,9.98
2018-09-14T05:47:57.645Z,10.14
2018-09-14T05:50:26.461Z,10.28
2018-09-14T05:52:55.140Z,10.51
2018-09-14T05:55:23.838Z,10.75
2018-09-14T05:57:52.562Z,10.83
2018-09-14T06:00:21.236Z,11.02
2018-09-14T06:02:50.576Z,11.17
2018-09-14T06:05:19.416Z,11.33
2018-09-14T06:07:48.153Z,11.43
2018-09-14T06:10:16.919Z,11.66
2018-09-14T06:12:45.576Z,12.19
2018-09-14T06:15:14.889Z,12.20
2018-09-14T06:17:43.560Z,12.36
2018-09-14T06:20:12.316Z,12.40
2018-09-14T06:22:41.023Z,12.66
2018-09-14T06:25:09.685Z,12.90
2018-09-14T06:27:38.425Z,13.10
2018-09-14T06:30:07.368Z,13.23
2018-09-14T06:32:36.047Z,13.62
2018-09-14T06:35:04.741Z,13.84
2018-09-14T06:37:34.105Z,14.14
2018-09-14T06:40:03.831Z,14.43
2018-09-14T06:42:33.611Z,14.66
2018-09-14T06:45:02.344Z,14.95
2018-09-14T06:47:30.959Z,15.30
2018-09-14T06:49:59.619Z,15.39
2018-09-14T06:52:28.398Z,15.67
2018-09-14T06:54:57.072Z,15.82
2018-09-14T06:57:25.784Z,16.19
2018-09-14T06:59:54.454Z,16.32
2018-09-14T07:02:23.153Z,16.71
2018-09-14T07:04:51.867Z,17.11
2018-09-14T07:07:20.646Z,17.31
2018-09-14T07:09:49.355Z,17.31
2018-09-14T07:12:18.076Z,17.90
2018-09-14T07:14:46.878Z,18.09
2018-09-14T07:17:15.559Z,18.23
2018-09-14T07:19:44.329Z,18.13
2018-09-14T07:22:13.062Z,18.50
2018-09-14T07:24:41.850Z,18.84
2018-09-14T07:27:10.678Z,19.06
2018-09-14T07:29:39.377Z,19.42
2018-09-14T07:32:08.066Z,19.44
2018-09-14T07:34:36.793Z,19.59
2018-09-14T07:37:05.766Z,19.70
2018-09-14T07:39:34.460Z,19.86
2018-09-14T07:42:03.168Z,19.82
2018-09-14T07:44:31.885Z,20.12
2018-09-14T07:47:00.539Z,20.12
2018-09-14T07:49:29.279Z,20.48
2018-09-14T07:51:58.083Z,20.55
2018-09-14T07:54:26.736Z,20.63
2018-09-14T07:56:55.415Z,21.05
2018-09-14T07:59:24.106Z,21.54
2018-09-14T08:01:52.803Z,21.32
2018-09-14T08:04:21.534Z,21.11
2018-09-14T08:06:50.205Z,21.24
2018-09-14T08:09:18.868Z,20.78
2018-09-14T08:11:47.564Z,21.39
2018-09-14T08:14:16.376Z,21.33
2018-09-14T08:16:46.005Z,22.03
2018-09-14T08:19:14.815Z,21.87
2018-09-14T08:21:43.587Z,21.94
2018-09-14T08:24:12.279Z,22.29
2018-09-14T08:26:41.039Z,22.44
2018-09-14T08:29:09.657Z,22.77
2018-09-14T08:31:38.394Z,21.99
2018-09-14T08:34:07.148Z,21.94
2018-09-14T08:36:35.851Z,22.14
2018-09-14T08:39:08.008Z,21.83
2018-09-14T08:41:36.891Z,22.47
2018-09-14T08:44:05.718Z,21.83
2018-09-14T08:46:34.431Z,22.73
2018-09-14T08:49:03.625Z,23.28
2018-09-14T08:51:33.033Z,23.16
2018-09-14T08:54:01.956Z,23.65
2018-09-14T08:56:30.665Z,22.53
2018-09-14T08:58:59.389Z,22.87
2018-09-14T09:01:28.096Z,22.93
2018-09-14T09:03:56.727Z,22.28
2018-09-14T09:06:25.409Z,22.57
2018-09-14T09:08:54.101Z,23.38
2018-09-14T09:11:22.858Z,22.95
2018-09-14T09:13:51.497Z,23.69
2018-09-14T09:16:20.196Z,24.10
2018-09-14T09:18:48.849Z,24.50
2018-09-14T09:21:17.524Z,24.75
2018-09-14T09:23:46.113Z,24.44
2018-09-14T09:26:14.832Z,25.28
2018-09-14T09:28:43.481Z,24.16
2018-09-14T09:31:12.139Z,23.71
2018-09-14T09:33:40.785Z,23.09
2018-09-14T09:36:09.485Z,24.15
2018-09-14T09:38:38.123Z,24.35
2018-09-14T09:41:07.283Z,24.98
2018-09-14T09:43:36.371Z,25.12
2018-09-14T09:46:04.880Z,25.61
2018-09-14T09:48:33.572Z,26.53
2018-09-14T09:51:02.336Z,26.35
2018-09-14T09:53:30.951Z,25.71
2018-09-14T09:55:59.647Z,24.82
2018-09-14T09:58:28.307Z,25.08
2018-09-14T10:01:02.373Z,25.90
2018-09-14T10:03:36.326Z,25.25
2018-09-14T10:06:10.189Z,26.33
2018-09-14T10:08:38.900Z,25.31
2018-09-14T10:11:07.659Z,26.07
2018-09-14T10:13:36.312Z,26.89
2018-09-14T10:16:04.972Z,26.18
2018-09-14T10:18:33.636Z,27.01
2018-09-14T10:21:02.438Z,25.42
2018-09-14T10:23:31.018Z,25.42
2018-09-14T10:25:59.709Z,26.26
2018-09-14T10:28:28.407Z,27.31
2018-09-14T10:30:57.132Z,28.04
2018-09-14T10:33:25.819Z,27.71
2018-09-14T10:35:54.517Z,27.95
2018-09-14T10:38:23.190Z,27.50
2018-09-14T10:40:52.039Z,26.58
2018-09-14T10:43:20.628Z,27.10
2018-09-14T10:45:49.374Z,27.79
2018-09-14T10:48:18.128Z,27.81
2018-09-14T10:50:46.884Z,27.93
2018-09-14T10:53:15.588Z,26.77
2018-09-14T10:55:44.289Z,26.45
2018-09-14T10:58:12.984Z,26.91
2018-09-14T11:00:41.720Z,26.81
2018-09-14T11:03:10.340Z,26.85
2018-09-14T11:05:39.049Z,27.30
2018-09-14T11:08:07.802Z,27.10
2018-09-14T11:10:36.520Z,26.93
2018-09-14T11:13:05.250Z,26.28
2018-09-14T11:15:33.942Z,26.68
2018-09-14T11:18:02.661Z,26.79
2018-09-14T11:20:31.655Z,27.35
2018-09-14T11:23:00.267Z,27.78
2018-09-14T11:25:28.960Z,27.22
2018-09-14T11:27:57.640Z,26.83
2018-09-14T11:30:26.206Z,26.20
2018-09-14T11:32:54.881Z,26.23
2018-09-14T11:35:23.539Z,25.43
2018-09-14T11:37:52.320Z,24.39
2018-09-14T11:40:20.913Z,24.42
2018-09-14T11:42:49.692Z,24.19
2018-09-14T11:45:18.486Z,25.10
2018-09-14T11:47:47.087Z,24.86
2018-09-14T11:50:15.820Z,24.48
2018-09-14T11:52:44.582Z,24.69
2018-09-14T11:55:13.231Z,25.04
2018-09-14T11:57:41.908Z,24.13
2018-09-14T12:00:10.596Z,24.01
2018-09-14T12:02:39.324Z,24.86
2018-09-14T12:05:08.204Z,25.54
2018-09-14T12:07:38.908Z,24.51
2018-09-14T12:10:08.467Z,25.48
2018-09-14T12:12:37.166Z,26.22
2018-09-14T12:15:05.857Z,25.93
2018-09-14T12:17:34.528Z,25.52
2018-09-14T12:20:03.217Z,25.02
2018-09-14T12:22:31.872Z,24.69
2018-09-14T12:25:00.525Z,24.55
2018-09-14T12:27:29.219Z,25.00
2018-09-14T12:29:57.872Z,24.85
2018-09-14T12:32:26.538Z,25.98
2018-09-14T12:34:55.191Z,26.56
2018-09-14T12:37:23.882Z,26.03
2018-09-14T12:39:52.557Z,26.15
2018-09-14T12:42:21.320Z,26.20
2018-09-14T12:44:49.996Z,26.25
2018-09-14T12:47:18.658Z,25.79
2018-09-14T12:49:47.418Z,25.90
2018-09-14T12:52:16.123Z,25.45
2018-09-14T12:54:44.819Z,25.10
2018-09-14T12:57:13.501Z,24.65
2018-09-14T12:59:42.195Z,24.63
2018-09-14T13:02:10.896Z,25.09
2018-09-14T13:04:39.613Z,25.07
2018-09-14T13:07:08.279Z,24.59
2018-09-14T13:09:37.391Z,24.66
2018-09-14T13:12:06.249Z,24.34
2018-09-14T13:14:35.002Z,24.87
2018-09-14T13:17:03.629Z,24.39
2018-09-14T13:19:32.278Z,24.29
2018-09-14T13:22:00.964Z,24.73
2018-09-14T13:24:29.651Z,24.34
2018-09-14T13:26:58.308Z,25.61
2018-09-14T13:29:26.939Z,25.09
2018-09-14T13:31:55.604Z,25.19
2018-09-14T13:34:24.256Z,24.69
2018-09-14T13:36:52.979Z,24.61
2018-09-14T13:39:21.665Z,24.14
2018-09-14T13:41:50.317Z,24.71
2018-09-14T13:44:19.164Z,24.51
2018-09-14T13:46:47.947Z,24.60
2018-09-14T13:49:16.635Z,24.99
2018-09-14T13:51:45.306Z,25.08
2018-09-14T13:54:14.016Z,24.05
2018-09-14T13:56:42.678Z,23.72
2018-09-14T13:59:11.453Z,23.68
2018-09-14T14:01:40.302Z,23.98
2018-09-14T14:04:08.978Z,24.33
2018-09-14T14:06:37.768Z,24.16
2018-09-14T14:09:09.024Z,24.32
2018-09-14T14:11:37.752Z,24.12
2018-09-14T14:14:06.569Z,23.98
2018-09-14T14:16:35.322Z,24.27
2018-09-14T14:19:03.908Z,24.28
2018-09-14T14:21:32.768Z,23.21
2018-09-14T14:24:01.495Z,23.91
2018-09-14T14:26:30.263Z,24.28
2018-09-14T14:28:58.966Z,24.47
2018-09-14T14:31:27.656Z,24.09
2018-09-14T14:33:56.295Z,24.29
2018-09-14T14:36:24.967Z,23.98
2018-09-14T14:38:53.747Z,23.98
2018-09-14T14:41:22.493Z,23.92
2018-09-14T14:43:51.140Z,23.49
2018-09-14T14:46:19.760Z,23.37
2018-09-14T14:48:48.427Z,23.34
2018-09-14T14:51:17.108Z,22.68
2018-09-14T14:53:45.887Z,22.49
2018-09-14T14:56:14.545Z,22.41
2018-09-14T14:58:43.295Z,22.60
2018-09-14T15:01:11.966Z,22.29
2018-09-14T15:03:40.639Z,21.91
2018-09-14T15:06:09.294Z,21.87
2018-09-14T15:08:37.971Z,21.80
2018-09-14T15:11:06.643Z,21.48
2018-09-14T15:13:35.409Z,21.13
2018-09-14T15:16:04.046Z,21.06
2018-09-14T15:18:32.744Z,20.80
2018-09-14T15:21:01.386Z,21.09
2018-09-14T15:23:30.091Z,21.02
2018-09-14T15:25:58.707Z,21.14
2018-09-14T15:28:27.342Z,21.01
2018-09-14T15:30:56.081Z,20.86
2018-09-14T15:33:24.772Z,20.95
2018-09-14T15:35:53.473Z,21.07
2018-09-14T15:38:22.160Z,21.15
2018-09-14T15:40:50.815Z,21.16
2018-09-14T15:43:19.468Z,21.03
2018-09-14T15:45:48.119Z,21.04
2018-09-14T15:48:16.787Z,21.05
2018-09-14T15:50:45.435Z,21.04
2018-09-14T15:53:14.077Z,21.08
2018-09-14T15:55:42.756Z,21.09
2018-09-14T15:58:11.611Z,20.93
2018-09-14T16:00:40.279Z,20.93
2018-09-14T16:03:08.954Z,20.98
2018-09-14T16:05:37.659Z,21.14
2018-09-14T16:08:06.509Z,20.93
2018-09-14T16:10:35.270Z,20.79
2018-09-14T16:13:04.001Z,20.63
2018-09-14T16:15:32.701Z,20.49
2018-09-14T16:18:01.410Z,20.68
2018-09-14T16:20:30.116Z,20.69
2018-09-14T16:22:58.743Z,20.68
2018-09-14T16:25:27.491Z,20.68
2018-09-14T16:27:56.195Z,20.63
2018-09-14T16:30:24.888Z,20.66
2018-09-14T16:32:53.571Z,20.68
2018-09-14T16:35:22.249Z,20.64
2018-09-14T16:37:50.918Z,20.62
2018-09-14T16:40:19.580Z,20.42
2018-09-14T16:42:48.279Z,20.39
2018-09-14T16:45:16.891Z,20.39
2018-09-14T16:47:45.552Z,20.35
2018-09-14T16:50:14.335Z,20.28
2018-09-14T16:52:43.011Z,20.31
2018-09-14T16:55:11.680Z,20.27
2018-09-14T16:57:40.377Z,20.28
2018-09-14T17:00:09.367Z,20.37
2018-09-14T17:02:38.194Z,20.35
2018-09-14T17:05:07.137Z,20.31
2018-09-14T17:07:35.846Z,20.27
2018-09-14T17:10:04.947Z,20.28
2018-09-14T17:12:33.828Z,20.27
2018-09-14T17:15:02.626Z,20.22
2018-09-14T17:17:31.318Z,20.13
2018-09-14T17:20:00.018Z,20.01
2018-09-14T17:22:28.767Z,20.02
2018-09-14T17:24:57.608Z,19.97
2018-09-14T17:27:26.344Z,20.00
2018-09-14T17:29:55.702Z,20.04
2018-09-14T17:32:24.468Z,20.01
2018-09-14T17:34:53.202Z,19.81
2018-09-14T17:37:22.225Z,19.90
2018-09-14T17:39:50.934Z,19.95
2018-09-14T17:42:20.509Z,20.09
2018-09-14T17:44:49.247Z,19.92
2018-09-14T17:47:17.943Z,19.77
2018-09-14T17:49:46.745Z,19.83
2018-09-14T17:52:15.418Z,19.74
2018-09-14T17:54:44.106Z,19.72
2018-09-14T17:57:12.992Z,19.83
2018-09-14T17:59:41.705Z,19.89
2018-09-14T18:02:10.801Z,19.76
2018-09-14T18:07:50.048Z,19.84
2018-09-14T18:10:19.166Z,19.65
2018-09-14T18:12:48.319Z,19.66
2018-09-14T18:15:17.141Z,19.63
2018-09-14T18:17:46.115Z,19.70
2018-09-14T18:20:14.929Z,19.69
2018-09-14T18:22:43.776Z,19.60
2018-09-14T18:25:13.181Z,19.57
2018-09-14T18:27:42.064Z,19.31
2018-09-14T18:30:10.852Z,19.32
2018-09-14T18:32:39.929Z,19.33
2018-09-14T18:35:08.898Z,19.36
2018-09-14T18:37:37.735Z,19.32
2018-09-14T18:40:06.676Z,19.11
2018-09-14T18:42:36.040Z,19.16
2018-09-14T18:45:06.231Z,19.08
2018-09-14T18:47:35.090Z,19.01
2018-09-14T18:50:04.092Z,19.08
2018-09-14T18:52:33.195Z,19.02
2018-09-14T18:55:02.072Z,19.08
2018-09-14T18:57:30.850Z,18.95
2018-09-14T19:00:00.166Z,18.68
2018-09-14T19:02:28.900Z,18.67
2018-09-14T19:04:58.032Z,18.68
2018-09-14T19:07:27.136Z,18.76
2018-09-14T19:09:55.907Z,18.72
2018-09-14T19:12:24.796Z,18.63
2018-09-14T19:14:53.540Z,18.49
2018-09-14T19:17:22.374Z,18.42
2018-09-14T19:19:51.863Z,18.36
2018-09-14T19:22:20.804Z,18.36
2018-09-14T19:24:49.677Z,18.49
2018-09-14T19:27:18.417Z,18.28
2018-09-14T19:29:47.193Z,18.22
2018-09-14T19:32:15.938Z,18.10
2018-09-14T19:34:44.678Z,18.04
2018-09-14T19:37:13.505Z,18.03
2018-09-14T19:39:42.695Z,18.12
2018-09-14T19:42:11.528Z,18.13
2018-09-14T19:44:40.271Z,18.03
2018-09-14T19:47:09.149Z,17.93
2018-09-14T19:49:37.901Z,18.07
2018-09-14T19:52:06.760Z,17.85
2018-09-14T19:54:35.509Z,17.96
2018-09-14T19:57:04.363Z,17.93
2018-09-14T19:59:33.313Z,17.96
2018-09-14T20:02:02.101Z,17.76
2018-09-14T20:04:30.881Z,17.84
2018-09-14T20:07:00.557Z,17.90
2018-09-14T20:09:29.279Z,17.84
2018-09-14T20:11:57.972Z,17.74
2018-09-14T20:14:26.704Z,17.59
2018-09-14T20:16:55.684Z,17.45
2018-09-14T20:19:24.642Z,17.50
2018-09-14T20:21:53.358Z,17.47
2018-09-14T20:24:23.104Z,17.51
2018-09-14T20:26:51.828Z,17.44
2018-09-14T20:29:20.584Z,17.32
2018-09-14T20:31:49.368Z,17.20
2018-09-14T20:34:18.161Z,17.21
2018-09-14T20:36:46.981Z,17.06
2018-09-14T20:39:15.944Z,17.13
2018-09-14T20:41:44.722Z,17.16
2018-09-14T20:44:13.553Z,17.18
2018-09-14T20:46:42.300Z,17.05
2018-09-14T20:49:11.228Z,16.92
2018-09-14T20:51:40.116Z,16.78
2018-09-14T20:54:08.895Z,16.81
2018-09-14T20:56:37.616Z,16.74
2018-09-14T20:59:06.639Z,16.62
2018-09-14T21:01:35.531Z,16.56
2018-09-14T21:04:04.333Z,16.58
2018-09-14T21:06:33.097Z,16.61
2018-09-14T21:09:02.150Z,16.49
2018-09-14T21:11:30.883Z,16.47
2018-09-14T21:13:59.727Z,16.61
2018-09-14T21:16:28.460Z,16.82
2018-09-14T21:18:57.159Z,16.72
2018-09-14T21:21:25.902Z,16.58
2018-09-14T21:23:54.781Z,16.55
2018-09-14T21:26:23.574Z,16.74
2018-09-14T21:28:52.384Z,16.50
2018-09-14T21:31:21.197Z,16.33
2018-09-14T21:33:49.939Z,16.22
2018-09-14T21:36:19.541Z,16.30
2018-09-14T21:38:48.494Z,16.42
2018-09-14T21:41:17.259Z,16.51
2018-09-14T21:43:48.554Z,16.35
2018-09-14T21:46:18.538Z,16.24
2018-09-14T21:48:47.321Z,16.18
2018-09-14T21:51:16.112Z,16.13
2018-09-14T21:53:44.974Z,16.27
2018-09-14T21:56:13.691Z,16.33
2018-09-14T21:58:44.460Z,16.29
2018-09-14T22:01:15.298Z,16.15
2018-09-14T22:03:45.416Z,16.00
2018-09-14T22:06:14.247Z,16.10
2018-09-14T22:08:43.154Z,15.69
2018-09-14T22:11:11.950Z,15.77
2018-09-14T22:13:40.848Z,15.74
2018-09-14T22:16:09.654Z,15.74
2018-09-14T22:18:38.380Z,15.77
2018-09-14T22:21:07.441Z,15.66
2018-09-14T22:23:36.343Z,15.58
2018-09-14T22:26:05.333Z,15.51
2018-09-14T22:28:34.297Z,15.42
2018-09-14T22:31:03.113Z,15.41
2018-09-14T22:33:32.169Z,15.32
2018-09-14T22:36:01.125Z,15.40
2018-09-14T22:38:29.861Z,15.30
2018-09-14T22:40:59.368Z,15.33
2018-09-14T22:43:28.179Z,15.33
2018-09-14T22:45:57.138Z,15.23
2018-09-14T22:48:25.936Z,15.27
2018-09-14T22:50:55.862Z,15.10
2018-09-14T22:53:24.750Z,15.08
2018-09-14T22:55:53.807Z,15.14
2018-09-14T22:58:22.641Z,15.15
2018-09-14T23:00:56.851Z,14.99
2018-09-14T23:03:25.577Z,15.01
2018-09-14T23:05:54.454Z,14.96
2018-09-14T23:08:23.634Z,14.88
2018-09-14T23:10:52.504Z,14.84
2018-09-14T23:13:21.328Z,14.82
2018-09-14T23:15:57.194Z,14.88
2018-09-14T23:18:26.263Z,14.80
2018-09-14T23:20:55.017Z,14.82
2018-09-14T23:23:24.038Z,14.84
2018-09-14T23:25:55.586Z,14.78
2018-09-14T23:28:24.721Z,14.73
2018-09-14T23:30:53.480Z,14.86
2018-09-14T23:33:22.185Z,14.88
2018-09-14T23:35:51.678Z,14.85
2018-09-14T23:38:20.451Z,14.83
2018-09-14T23:40:50.197Z,14.70
2018-09-14T23:43:18.993Z,14.71
2018-09-14T23:45:47.752Z,14.70
2018-09-14T23:48:22.012Z,14.64
2018-09-14T23:50:51.085Z,14.47
2018-09-14T23:53:19.881Z,14.49
2018-09-14T23:55:48.791Z,14.56
2018-09-14T23:58:17.650Z,14.53
